Terminal Aerodrome Forecast
Issued by NWS Twin Cities, MN

Home | Current Version | Previous Version | Text Only | Print | Product List | Glossary Off
Versions: 1 2 3 4 5 6 7 8 9 10 11 12 13 14 15 16 17 18 19 20 21 22 23 24 25 26 27

707
FTUS43 KMPX 061400 AAB
TAFMSP
TAF AMD
KMSP 061400Z 0614/0718 18008KT P6SM OVC009
     FM061800 19012KT P6SM BKN060
     FM062100 21012G18KT P6SM OVC070 WS020/27040KT
     FM071400 25017G25KT 6SM -SHSN BR OVC040 PROB30 0714/0718 3SM
      -SN OVC025=

USA.gov is the U.S. government's official web portal to all federal, state and local government web resources and services.